createdAt,value
2019-03-21T00:02:16.916Z,102769.13
2019-03-21T00:04:48.434Z,102767.06
2019-03-21T00:07:18.115Z,102778.36
2019-03-21T00:10:10.313Z,102780.34
2019-03-21T00:12:39.675Z,102769.63
2019-03-21T00:15:17.986Z,102768.73
2019-03-21T00:17:50.485Z,102768.33
2019-03-21T00:20:19.802Z,102768.69
2019-03-21T00:22:49.124Z,102771.15
2019-03-21T00:25:24.641Z,102773.03
2019-03-21T00:27:54.002Z,102773.03
2019-03-21T00:30:25.161Z,102772.92
2019-03-21T00:32:55.891Z,102774.75
2019-03-21T00:35:25.380Z,102784.38
2019-03-21T00:37:54.679Z,102780.44
2019-03-21T00:40:36.113Z,102786.57
2019-03-21T00:43:08.247Z,102786.22
2019-03-21T00:45:37.648Z,102789.11
2019-03-21T00:48:10.186Z,102784.50
2019-03-21T00:50:39.899Z,102782.83
2019-03-21T00:53:09.213Z,102777.92
2019-03-21T00:55:41.741Z,102781.27
2019-03-21T00:58:11.096Z,102774.50
2019-03-21T01:00:43.468Z,102782.98
2019-03-21T01:03:13.910Z,102778.65
2019-03-21T01:05:44.061Z,102776.61
2019-03-21T01:08:13.445Z,102778.65
2019-03-21T01:10:42.725Z,102780.98
2019-03-21T01:13:12.048Z,102780.01
2019-03-21T01:15:42.885Z,102775.36
2019-03-21T01:18:12.191Z,102774.38
2019-03-21T01:20:41.498Z,102771.06
2019-03-21T01:23:10.796Z,102772.59
2019-03-21T01:25:43.219Z,102773.22
2019-03-21T01:28:12.536Z,102767.82
2019-03-21T01:30:41.824Z,102766.61
2019-03-21T01:33:11.188Z,102762.33
2019-03-21T01:35:41.336Z,102763.53
2019-03-21T01:38:10.649Z,102757.98
2019-03-21T01:40:49.781Z,102768.63
2019-03-21T01:43:20.339Z,102761.27
2019-03-21T01:45:49.819Z,102765.06
2019-03-21T01:48:19.139Z,102763.42
2019-03-21T01:50:48.419Z,102759.95
2019-03-21T01:53:18.156Z,102765.28
2019-03-21T01:55:47.632Z,102762.48
2019-03-21T01:58:16.934Z,102758.72
2019-03-21T02:00:52.211Z,102757.19
2019-03-21T02:03:21.521Z,102761.75
2019-03-21T02:05:50.807Z,102755.52
2019-03-21T02:08:20.119Z,102752.78
2019-03-21T02:10:49.700Z,102754.12
2019-03-21T02:13:19.027Z,102752.09
2019-03-21T02:15:50.792Z,102747.90
2019-03-21T02:18:19.549Z,102746.14
2019-03-21T02:20:48.851Z,102749.28
2019-03-21T02:23:18.543Z,102755.83
2019-03-21T02:25:47.862Z,102748.21
2019-03-21T02:28:17.189Z,102744.61
2019-03-21T02:30:53.768Z,102747.35
2019-03-21T02:33:34.193Z,102745.02
2019-03-21T02:36:06.564Z,102739.03
2019-03-21T02:38:35.883Z,102739.80
2019-03-21T02:41:08.280Z,102741.11
2019-03-21T02:43:37.839Z,102743.23
2019-03-21T02:46:07.126Z,102737.44
2019-03-21T02:48:36.545Z,102737.36
2019-03-21T02:51:07.694Z,102736.85
2019-03-21T02:53:37.265Z,102743.30
2019-03-21T02:56:09.948Z,102736.77
2019-03-21T02:58:39.266Z,102731.73
2019-03-21T03:01:08.553Z,102730.40
2019-03-21T03:03:37.867Z,102739.06
2019-03-21T03:06:07.382Z,102739.06
2019-03-21T03:08:36.692Z,102738.59
2019-03-21T03:11:12.116Z,102733.31
2019-03-21T03:13:43.833Z,102733.25
2019-03-21T03:16:13.429Z,102737.36
2019-03-21T03:18:42.757Z,102744.86
2019-03-21T03:21:12.062Z,102745.98
2019-03-21T03:23:41.341Z,102744.70
2019-03-21T03:26:10.752Z,102745.94
2019-03-21T03:28:42.932Z,102744.80
2019-03-21T03:31:12.228Z,102741.64
2019-03-21T03:33:41.555Z,102742.66
2019-03-21T03:36:12.284Z,102742.95
2019-03-21T03:38:41.590Z,102744.27
2019-03-21T03:41:13.519Z,102748.67
2019-03-21T03:43:42.927Z,102747.45
2019-03-21T03:46:12.230Z,102756.88
2019-03-21T03:48:41.551Z,102752.60
2019-03-21T03:51:10.856Z,102748.00
2019-03-21T03:53:42.369Z,102756.30
2019-03-21T03:56:11.292Z,102754.88
2019-03-21T03:58:47.361Z,102758.47
2019-03-21T04:01:16.935Z,102757.16
2019-03-21T04:03:46.580Z,102757.36
2019-03-21T04:06:15.897Z,102756.67
2019-03-21T04:08:45.687Z,102759.36
2019-03-21T04:11:15.650Z,102765.22
2019-03-21T04:13:44.968Z,102764.38
2019-03-21T04:16:14.474Z,102757.58
2019-03-21T04:18:43.880Z,102758.30
2019-03-21T04:21:16.248Z,102769.31
2019-03-21T04:23:46.075Z,102770.31
2019-03-21T04:26:23.882Z,102769.09
2019-03-21T04:28:53.259Z,102772.05
2019-03-21T04:31:22.573Z,102763.97
2019-03-21T04:33:55.020Z,102770.81
2019-03-21T04:36:24.308Z,102770.96
2019-03-21T04:38:53.631Z,102769.06
2019-03-21T04:41:23.002Z,102764.53
2019-03-21T04:43:52.328Z,102761.32
2019-03-21T04:46:21.643Z,102769.59
2019-03-21T04:48:50.964Z,102765.77
2019-03-21T04:51:20.404Z,102766.72
2019-03-21T04:53:49.714Z,102779.98
2019-03-21T04:56:19.036Z,102772.17
2019-03-21T04:58:48.356Z,102779.16
2019-03-21T05:01:17.686Z,102771.74
2019-03-21T05:03:46.983Z,102767.41
2019-03-21T05:06:16.718Z,102774.20
2019-03-21T05:08:46.028Z,102781.50
2019-03-21T05:11:15.770Z,102783.66
2019-03-21T05:13:45.117Z,102784.37
2019-03-21T05:16:15.207Z,102779.75
2019-03-21T05:18:50.599Z,102789.02
2019-03-21T05:21:23.127Z,102788.55
2019-03-21T05:23:52.419Z,102794.41
2019-03-21T05:26:21.720Z,102789.83
2019-03-21T05:28:51.197Z,102789.08
2019-03-21T05:31:35.188Z,102790.14
2019-03-21T05:34:04.770Z,102791.27
2019-03-21T05:36:34.063Z,102792.48
2019-03-21T05:39:05.169Z,102790.98
2019-03-21T05:41:34.470Z,102796.72
2019-03-21T05:44:06.804Z,102796.19
2019-03-21T05:46:36.075Z,102800.53
2019-03-21T05:49:05.443Z,102803.16
2019-03-21T05:51:34.744Z,102799.05
2019-03-21T05:54:04.232Z,102795.16
2019-03-21T05:56:33.511Z,102792.31
2019-03-21T05:59:03.076Z,102792.88
2019-03-21T06:01:32.421Z,102798.06
2019-03-21T06:04:01.749Z,102798.05
2019-03-21T06:06:58.334Z,102796.72
2019-03-21T06:09:27.936Z,102796.09
2019-03-21T06:12:02.712Z,102803.64
2019-03-21T06:14:43.608Z,102807.69
2019-03-21T06:17:12.916Z,102806.18
2019-03-21T06:19:51.363Z,102806.69
2019-03-21T06:22:38.352Z,102814.17
2019-03-21T06:25:34.676Z,102812.11
2019-03-21T06:28:04.062Z,102806.77
2019-03-21T06:30:33.353Z,102798.31
2019-03-21T06:33:02.892Z,102798.31
2019-03-21T06:35:32.225Z,102818.10
2019-03-21T06:38:02.132Z,102809.34
2019-03-21T06:40:31.444Z,102810.15
2019-03-21T06:43:00.740Z,102812.41
2019-03-21T06:45:30.453Z,102816.34
2019-03-21T06:47:59.815Z,102808.63
2019-03-21T06:50:29.128Z,102810.11
2019-03-21T06:52:58.431Z,102818.23
2019-03-21T06:55:27.735Z,102810.66
2019-03-21T06:57:57.308Z,102802.80
2019-03-21T07:00:26.665Z,102804.39
2019-03-21T07:02:55.985Z,102802.06
2019-03-21T07:05:26.846Z,102801.17
2019-03-21T07:07:56.699Z,102799.98
2019-03-21T07:10:26.178Z,102803.21
2019-03-21T07:12:55.499Z,102804.39
2019-03-21T07:15:24.790Z,102805.37
2019-03-21T07:17:54.380Z,102805.37
2019-03-21T07:20:23.662Z,102807.95
2019-03-21T07:22:52.981Z,102806.88
2019-03-21T07:25:22.269Z,102813.67
2019-03-21T07:27:51.587Z,102809.02
2019-03-21T07:30:20.876Z,102800.99
2019-03-21T07:32:50.183Z,102797.84
2019-03-21T07:35:19.458Z,102805.81
2019-03-21T07:37:49.064Z,102802.80
2019-03-21T07:40:18.337Z,102801.62
2019-03-21T07:42:47.715Z,102794.09
2019-03-21T07:45:17.526Z,102797.67
2019-03-21T07:47:47.075Z,102794.94
2019-03-21T07:50:16.514Z,102802.35
2019-03-21T07:52:45.908Z,102797.69
2019-03-21T07:55:15.354Z,102796.37
2019-03-21T07:57:44.999Z,102790.87
2019-03-21T08:00:16.635Z,102792.59
2019-03-21T08:02:45.916Z,102788.91
2019-03-21T08:05:15.971Z,102787.69
2019-03-21T08:07:45.270Z,102782.29
2019-03-21T08:10:15.695Z,102788.64
2019-03-21T08:12:45.017Z,102785.91
2019-03-21T08:15:18.532Z,102784.27
2019-03-21T08:17:47.847Z,102773.55
2019-03-21T08:20:18.119Z,102773.17
2019-03-21T08:22:47.430Z,102767.15
2019-03-21T08:25:16.821Z,102768.57
2019-03-21T08:27:46.116Z,102768.49
2019-03-21T08:30:24.495Z,102770.13
2019-03-21T08:32:53.794Z,102769.19
2019-03-21T08:35:23.560Z,102757.58
2019-03-21T08:37:53.027Z,102761.15
2019-03-21T08:40:22.347Z,102762.34
2019-03-21T08:42:51.656Z,102770.38
2019-03-21T08:45:21.421Z,102761.94
2019-03-21T08:47:50.777Z,102759.59
2019-03-21T08:50:20.087Z,102764.75
2019-03-21T08:52:49.366Z,102763.64
2019-03-21T08:55:18.678Z,102756.25
2019-03-21T08:57:47.990Z,102759.14
2019-03-21T09:00:18.014Z,102760.17
2019-03-21T09:02:47.338Z,102764.57
2019-03-21T09:05:16.693Z,102765.24
2019-03-21T09:07:46.301Z,102765.59
2019-03-21T09:10:15.649Z,102765.13
2019-03-21T09:12:44.973Z,102761.45
2019-03-21T09:15:14.437Z,102761.08
2019-03-21T09:17:43.942Z,102753.47
2019-03-21T09:20:13.498Z,102759.42
2019-03-21T09:22:43.080Z,102756.52
2019-03-21T09:25:12.838Z,102750.83
2019-03-21T09:27:42.519Z,102750.59
2019-03-21T09:30:14.014Z,102744.33
2019-03-21T09:32:43.326Z,102740.09
2019-03-21T09:35:13.134Z,102740.98
2019-03-21T09:37:42.445Z,102736.93
2019-03-21T09:40:13.266Z,102735.01
2019-03-21T09:42:42.644Z,102730.41
2019-03-21T09:45:12.283Z,102729.28
2019-03-21T09:47:41.587Z,102727.38
2019-03-21T09:50:12.977Z,102697.95
2019-03-21T09:52:42.299Z,102722.48
2019-03-21T09:55:11.663Z,102720.70
2019-03-21T09:57:41.233Z,102725.37
2019-03-21T10:00:11.498Z,102724.83
2019-03-21T10:02:41.788Z,102721.11
2019-03-21T10:05:11.153Z,102721.00
2019-03-21T10:07:40.657Z,102714.73
2019-03-21T10:10:12.989Z,102711.78
2019-03-21T10:12:42.304Z,102700.27
2019-03-21T10:15:11.597Z,102706.19
2019-03-21T10:17:41.255Z,102710.12
2019-03-21T10:20:10.649Z,102705.69
2019-03-21T10:22:39.972Z,102699.81
2019-03-21T10:25:09.751Z,102701.56
2019-03-21T10:27:39.069Z,102704.02
2019-03-21T10:30:09.519Z,102711.08
2019-03-21T10:32:38.895Z,102700.94
2019-03-21T10:35:08.273Z,102690.64
2019-03-21T10:37:37.891Z,102692.28
2019-03-21T10:40:08.082Z,102697.08
2019-03-21T10:42:37.360Z,102689.20
2019-03-21T10:45:07.728Z,102692.25
2019-03-21T10:47:37.041Z,102689.27
2019-03-21T10:50:06.954Z,102687.03
2019-03-21T10:52:36.349Z,102688.56
2019-03-21T10:55:06.707Z,102690.30
2019-03-21T10:57:36.040Z,102680.78
2019-03-21T11:00:07.666Z,102686.31
2019-03-21T11:02:37.245Z,102681.49
2019-03-21T11:05:07.285Z,102678.56
2019-03-21T11:07:36.608Z,102673.77
2019-03-21T11:10:07.736Z,102674.88
2019-03-21T11:12:37.046Z,102673.78
2019-03-21T11:15:07.192Z,102670.84
2019-03-21T11:17:36.567Z,102661.60
2019-03-21T11:20:07.065Z,102664.69
2019-03-21T11:22:36.605Z,102650.94
2019-03-21T11:25:07.272Z,102653.77
2019-03-21T11:27:37.029Z,102654.10
2019-03-21T11:30:15.997Z,102649.55
2019-03-21T11:32:39.269Z,102634.68
2019-03-21T11:35:08.646Z,102641.28
2019-03-21T11:37:38.034Z,102634.88
2019-03-21T11:40:07.963Z,102640.08
2019-03-21T11:42:37.271Z,102619.53
2019-03-21T11:45:09.727Z,102631.19
2019-03-21T11:47:42.115Z,102627.09
2019-03-21T11:50:10.109Z,102628.48
2019-03-21T11:52:41.065Z,102625.91
2019-03-21T11:55:11.520Z,102619.96
2019-03-21T11:57:40.846Z,102616.07
2019-03-21T12:00:13.707Z,102615.44
2019-03-21T12:02:43.177Z,102610.48
2019-03-21T12:05:12.754Z,102609.78
2019-03-21T12:07:42.077Z,102616.15
2019-03-21T12:10:13.539Z,102606.44
2019-03-21T12:12:42.855Z,102607.80
2019-03-21T12:15:12.497Z,102600.31
2019-03-21T12:17:41.803Z,102601.62
2019-03-21T12:20:14.340Z,102592.25
2019-03-21T12:22:43.657Z,102591.25
2019-03-21T12:25:13.375Z,102586.26
2019-03-21T12:27:42.666Z,102577.92
2019-03-21T12:30:17.908Z,102575.15
2019-03-21T12:32:47.182Z,102584.19
2019-03-21T12:35:16.479Z,102578.47
2019-03-21T12:37:45.789Z,102575.39
2019-03-21T12:40:15.067Z,102571.17
2019-03-21T12:42:44.383Z,102570.39
2019-03-21T12:45:14.143Z,102560.69
2019-03-21T12:47:43.448Z,102553.20
2019-03-21T12:50:12.830Z,102556.19
2019-03-21T12:52:42.403Z,102554.38
2019-03-21T12:55:11.937Z,102552.70
2019-03-21T12:57:41.221Z,102549.68
2019-03-21T13:00:17.941Z,102551.78
2019-03-21T13:02:47.259Z,102542.30
2019-03-21T13:05:28.550Z,102548.70
2019-03-21T13:07:58.257Z,102546.72
2019-03-21T13:10:27.570Z,102504.42
2019-03-21T13:12:57.025Z,102541.52
2019-03-21T13:15:30.152Z,102543.81
2019-03-21T13:18:00.267Z,102537.25
2019-03-21T13:20:28.751Z,102536.01
2019-03-21T13:22:58.343Z,102530.18
2019-03-21T13:25:27.654Z,102532.34
2019-03-21T13:27:57.042Z,102526.38
2019-03-21T13:30:26.483Z,102523.39
2019-03-21T13:32:55.782Z,102525.80
2019-03-21T13:35:32.637Z,102518.25
2019-03-21T13:37:56.294Z,102518.66
2019-03-21T13:40:25.760Z,102522.92
2019-03-21T13:42:55.041Z,102521.34
2019-03-21T13:45:24.406Z,102520.08
2019-03-21T13:47:53.626Z,102518.45
2019-03-21T13:50:22.941Z,102516.77
2019-03-21T13:52:52.245Z,102507.61
2019-03-21T13:55:21.535Z,102508.34
2019-03-21T13:57:50.827Z,102504.23
2019-03-21T14:00:22.191Z,102500.13
2019-03-21T14:02:51.571Z,102500.38
2019-03-21T14:05:20.996Z,102497.19
2019-03-21T14:07:50.326Z,102494.48
2019-03-21T14:10:19.945Z,102495.61
2019-03-21T14:12:49.326Z,102490.78
2019-03-21T14:15:19.158Z,102488.45
2019-03-21T14:17:48.466Z,102482.12
2019-03-21T14:20:18.021Z,102479.09
2019-03-21T14:22:47.531Z,102476.88
2019-03-21T14:25:16.970Z,102476.28
2019-03-21T14:27:46.654Z,102474.20
2019-03-21T14:30:19.040Z,102474.94
2019-03-21T14:32:48.425Z,102479.70
2019-03-21T14:35:18.286Z,102472.55
2019-03-21T14:37:47.679Z,102470.82
2019-03-21T14:40:18.104Z,102471.69
2019-03-21T14:42:47.541Z,102469.27
2019-03-21T14:45:17.744Z,102463.95
2019-03-21T14:47:47.097Z,102460.19
2019-03-21T14:50:19.465Z,102462.22
2019-03-21T14:52:48.761Z,102456.48
2019-03-21T14:55:18.265Z,102452.66
2019-03-21T14:57:47.774Z,102453.16
2019-03-21T15:00:19.165Z,102458.91
2019-03-21T15:02:48.504Z,102456.56
2019-03-21T15:05:17.972Z,102453.30
2019-03-21T15:07:47.293Z,102452.27
2019-03-21T15:10:18.114Z,102450.45
2019-03-21T15:12:47.411Z,102447.84
2019-03-21T15:15:17.064Z,102444.13
2019-03-21T15:17:46.380Z,102441.70
2019-03-21T15:20:17.597Z,102443.61
2019-03-21T15:22:46.887Z,102440.84
2019-03-21T15:25:16.643Z,102437.91
2019-03-21T15:27:45.996Z,102441.28
2019-03-21T15:30:20.044Z,102439.34
2019-03-21T15:32:49.559Z,102431.16
2019-03-21T15:35:20.253Z,102429.24
2019-03-21T15:37:49.546Z,102430.09
2019-03-21T15:40:18.900Z,102432.08
2019-03-21T15:42:48.215Z,102424.22
2019-03-21T15:45:23.596Z,102422.13
2019-03-21T15:47:49.654Z,102417.69
2019-03-21T15:50:31.225Z,102418.77
2019-03-21T15:53:00.535Z,102417.05
2019-03-21T15:55:29.931Z,102417.02
2019-03-21T15:57:59.382Z,102417.97
2019-03-21T16:00:42.721Z,102417.02
2019-03-21T16:03:13.373Z,102415.33
2019-03-21T16:05:43.191Z,102418.23
2019-03-21T16:08:12.886Z,102411.69
2019-03-21T16:10:42.314Z,102411.88
2019-03-21T16:13:11.801Z,102411.36
2019-03-21T16:15:41.202Z,102415.05
2019-03-21T16:18:10.494Z,102410.80
2019-03-21T16:20:39.869Z,102408.45
2019-03-21T16:23:09.158Z,102406.63
2019-03-21T16:25:38.472Z,102405.67
2019-03-21T16:28:07.767Z,102403.17
2019-03-21T16:30:37.098Z,102404.95
2019-03-21T16:33:06.379Z,102403.75
2019-03-21T16:35:35.693Z,102400.81
2019-03-21T16:38:05.021Z,102402.45
2019-03-21T16:40:34.312Z,102395.19
2019-03-21T16:43:05.520Z,102401.12
2019-03-21T16:45:35.075Z,102400.82
2019-03-21T16:48:05.601Z,102399.73
2019-03-21T16:50:34.900Z,102399.55
2019-03-21T16:53:04.360Z,102402.27
2019-03-21T16:55:33.719Z,102400.54
2019-03-21T16:58:03.188Z,102399.98
2019-03-21T17:00:32.885Z,102396.20
2019-03-21T17:03:02.349Z,102401.11
2019-03-21T17:05:31.752Z,102397.41
2019-03-21T17:08:10.489Z,102402.44
2019-03-21T17:10:32.287Z,102408.38
2019-03-21T17:13:04.753Z,102407.38
2019-03-21T17:15:33.002Z,102412.36
2019-03-21T17:18:02.436Z,102404.86
2019-03-21T17:20:31.849Z,102407.29
2019-03-21T17:23:01.224Z,102406.78
2019-03-21T17:25:31.577Z,102409.55
2019-03-21T17:28:01.083Z,102407.89
2019-03-21T17:30:30.856Z,102409.22
2019-03-21T17:33:00.168Z,102412.27
2019-03-21T17:35:29.690Z,102408.53
2019-03-21T17:37:59.019Z,102408.44
2019-03-21T17:40:28.309Z,102409.37
2019-03-21T17:42:57.629Z,102409.16
2019-03-21T17:45:26.991Z,102405.08
2019-03-21T17:47:56.551Z,102414.30
2019-03-21T17:50:25.843Z,102414.42
2019-03-21T17:52:55.397Z,102414.06
2019-03-21T17:55:24.848Z,102418.43
2019-03-21T17:57:54.169Z,102423.06
2019-03-21T18:00:35.077Z,102424.75
2019-03-21T18:03:05.544Z,102429.45
2019-03-21T18:05:34.867Z,102425.37
2019-03-21T18:08:04.258Z,102434.06
2019-03-21T18:10:36.544Z,102431.45
2019-03-21T18:13:06.596Z,102434.56
2019-03-21T18:15:36.128Z,102434.05
2019-03-21T18:18:05.505Z,102434.66
2019-03-21T18:20:34.887Z,102426.40
2019-03-21T18:23:04.270Z,102425.59
2019-03-21T18:25:33.597Z,102430.39
2019-03-21T18:28:03.284Z,102435.42
2019-03-21T18:30:32.582Z,102439.92
2019-03-21T18:33:01.977Z,102442.66
2019-03-21T18:35:31.302Z,102446.98
2019-03-21T18:38:00.582Z,102443.98
2019-03-21T18:40:29.898Z,102446.60
2019-03-21T18:42:59.339Z,102446.43
2019-03-21T18:45:28.651Z,102444.66
2019-03-21T18:47:57.944Z,102449.31
2019-03-21T18:50:27.407Z,102450.59
2019-03-21T18:52:56.697Z,102456.83
2019-03-21T18:55:26.605Z,102458.48
2019-03-21T18:57:56.152Z,102452.71
2019-03-21T19:00:25.792Z,102452.98
2019-03-21T19:02:55.097Z,102457.05
2019-03-21T19:05:24.383Z,102457.97
2019-03-21T19:07:53.775Z,102466.74
2019-03-21T19:10:23.474Z,102463.22
2019-03-21T19:12:52.753Z,102458.38
2019-03-21T19:15:22.096Z,102460.98
2019-03-21T19:17:51.365Z,102455.33
2019-03-21T19:20:21.300Z,102459.03
2019-03-21T19:22:51.065Z,102466.27
2019-03-21T19:25:20.810Z,102463.41
2019-03-21T19:27:50.285Z,102460.59
2019-03-21T19:30:21.625Z,102464.97
2019-03-21T19:32:51.225Z,102465.58
2019-03-21T19:35:20.645Z,102471.86
2019-03-21T19:37:49.917Z,102480.09
2019-03-21T19:40:20.552Z,102477.20
2019-03-21T19:42:49.904Z,102482.88
2019-03-21T19:45:20.019Z,102479.65
2019-03-21T19:47:49.335Z,102480.33
2019-03-21T19:50:22.690Z,102484.67
2019-03-21T19:52:52.002Z,102479.58
2019-03-21T19:55:30.631Z,102478.25
2019-03-21T19:57:52.432Z,102486.38
2019-03-21T20:00:23.589Z,102483.73
2019-03-21T20:02:53.270Z,102478.80
2019-03-21T20:05:23.017Z,102481.73
2019-03-21T20:07:52.430Z,102478.99
2019-03-21T20:10:22.617Z,102478.53
2019-03-21T20:12:51.943Z,102477.58
2019-03-21T20:15:21.409Z,102477.20
2019-03-21T20:17:50.722Z,102482.69
2019-03-21T20:20:20.085Z,102482.69
2019-03-21T20:22:49.543Z,102485.17
2019-03-21T20:25:19.009Z,102488.08
2019-03-21T20:27:48.358Z,102483.27
2019-03-21T20:30:21.772Z,102480.88
2019-03-21T20:32:51.554Z,102485.97
2019-03-21T20:35:20.860Z,102487.19
2019-03-21T20:37:50.247Z,102482.86
2019-03-21T20:40:20.224Z,102484.98
2019-03-21T20:42:49.591Z,102480.45
2019-03-21T20:45:20.575Z,102482.70
2019-03-21T20:47:49.881Z,102483.98
2019-03-21T20:50:19.519Z,102476.46
2019-03-21T20:52:49.197Z,102481.98
2019-03-21T20:55:18.797Z,102482.23
2019-03-21T20:57:48.076Z,102482.42
2019-03-21T21:00:22.982Z,102473.55
2019-03-21T21:02:53.713Z,102476.05
2019-03-21T21:05:23.578Z,102471.80
2019-03-21T21:07:52.944Z,102467.42
2019-03-21T21:10:22.334Z,102477.06
2019-03-21T21:12:51.730Z,102468.00
2019-03-21T21:15:21.048Z,102472.92
2019-03-21T21:17:50.372Z,102463.95
2019-03-21T21:20:20.030Z,102467.55
2019-03-21T21:22:49.340Z,102470.28
2019-03-21T21:25:18.670Z,102472.80
2019-03-21T21:27:49.817Z,102474.23
2019-03-21T21:30:20.729Z,102472.06
2019-03-21T21:32:50.185Z,102465.64
2019-03-21T21:35:19.550Z,102464.63
2019-03-21T21:37:49.084Z,102458.52
2019-03-21T21:40:18.899Z,102459.83
2019-03-21T21:42:48.198Z,102465.31
2019-03-21T21:45:18.396Z,102462.05
2019-03-21T21:47:47.713Z,102468.05
2019-03-21T21:50:18.177Z,102467.88
2019-03-21T21:52:47.482Z,102467.20
2019-03-21T21:55:16.947Z,102468.07
2019-03-21T21:57:46.261Z,102468.41
2019-03-21T22:00:22.954Z,102457.75
2019-03-21T22:02:52.462Z,102436.43
2019-03-21T22:05:21.830Z,102452.65
2019-03-21T22:07:51.126Z,102460.99
2019-03-21T22:10:20.412Z,102460.99
2019-03-21T22:12:49.730Z,102466.53
2019-03-21T22:15:19.351Z,102454.38
2019-03-21T22:17:48.663Z,102461.16
2019-03-21T22:20:18.437Z,102469.41
2019-03-21T22:22:47.834Z,102465.44
2019-03-21T22:25:17.151Z,102467.20
2019-03-21T22:27:46.465Z,102467.20
2019-03-21T22:30:18.318Z,102467.07
2019-03-21T22:32:47.695Z,102470.03
2019-03-21T22:35:16.989Z,102465.52
2019-03-21T22:37:46.319Z,102472.35
2019-03-21T22:40:20.637Z,102478.50
2019-03-21T22:42:51.597Z,102482.92
2019-03-21T22:45:20.878Z,102477.56
2019-03-21T22:47:50.838Z,102482.52
2019-03-21T22:50:20.526Z,102483.16
2019-03-21T22:52:49.815Z,102477.24
2019-03-21T22:55:19.136Z,102470.80
2019-03-21T22:57:48.505Z,102466.38
2019-03-21T23:00:22.145Z,102466.14
2019-03-21T23:02:51.532Z,102460.63
2019-03-21T23:05:21.607Z,102465.84
2019-03-21T23:07:50.900Z,102467.47
2019-03-21T23:10:20.216Z,102466.70
2019-03-21T23:12:49.497Z,102469.97
2019-03-21T23:15:18.950Z,102422.22
2019-03-21T23:17:48.791Z,102456.81
2019-03-21T23:20:18.872Z,102456.81
2019-03-21T23:22:48.259Z,102457.19
2019-03-21T23:25:17.605Z,102459.39
2019-03-21T23:27:46.933Z,102451.79
2019-03-21T23:30:18.384Z,102457.87
2019-03-21T23:32:48.096Z,102456.38
2019-03-21T23:35:17.483Z,102454.52
2019-03-21T23:37:46.761Z,102447.66
2019-03-21T23:40:16.830Z,102450.91
2019-03-21T23:42:46.125Z,102446.05
2019-03-21T23:45:16.071Z,102444.82
2019-03-21T23:47:45.362Z,102448.33
2019-03-21T23:50:16.106Z,102450.02
2019-03-21T23:52:45.427Z,102445.06
2019-03-21T23:55:15.255Z,102440.23
2019-03-21T23:57:44.576Z,102440.16
